Time;durP1;ratioP1;P1;durP2;ratioP2;P2;SDS_P1;SDS_P2;PMS_P1;PMS_P2;Temp;Humidity;BMP_temperature;BMP_pressure;BME280_temperature;BME280_humidity;BME280_pressure;Samples;Min_cycle;Max_cycle;Signal;HPM_P1;HPM_P2
2023/01/09 15:27:13;;;;;;;17.70;4.80;;;;;;;8.58;80.23;102191.30;105008;1295;557740;-49
2023/01/09 15:29:40;;;;;;;28.00;6.40;;;;;;;9.72;74.10;102181.48;106249;1280;22541;-50
2023/01/09 15:32:11;;;;;;;25.40;6.70;;;;;;;9.91;73.13;102177.41;106231;1280;24280;-49
2023/01/09 15:34:39;;;;;;;22.50;6.30;;;;;;;10.01;72.61;102178.48;105905;1283;25360;-51
2023/01/09 15:37:34;;;;;;;20.40;7.10;;;;;;;10.09;72.10;102180.79;105895;1282;25415;-49
2023/01/09 15:40:03;;;;;;;19.80;5.60;;;;;;;10.18;71.92;102180.48;105794;1285;424081;-50
2023/01/09 15:42:59;;;;;;;25.60;6.20;;;;;;;10.25;71.72;102171.47;106073;1278;24470;-50
2023/01/09 15:45:28;;;;;;;25.10;6.10;;;;;;;10.34;71.17;102174.27;106317;1285;25462;-49
2023/01/09 15:47:56;;;;;;;24.40;6.00;;;;;;;10.40;70.82;102174.45;105710;1278;1003110;-50
2023/01/09 15:50:27;;;;;;;19.50;5.40;;;;;;;10.45;70.41;102166.13;106291;1282;22540;-49
2023/01/09 15:52:54;;;;;;;17.90;4.90;;;;;;;10.52;70.13;102169.09;106213;1263;25454;-49
2023/01/09 15:55:24;;;;;;;16.50;5.00;;;;;;;10.57;69.89;102165.62;106155;1285;25878;-50
2023/01/09 15:57:53;;;;;;;21.30;5.60;;;;;;;10.59;69.59;102159.20;106231;1278;22582;-48
2023/01/09 16:00:40;;;;;;;19.10;5.20;;;;;;;10.61;69.14;102150.52;105889;1282;25576;-49
2023/01/09 16:03:16;;;;;;;18.70;5.40;;;;;;;10.66;68.83;102148.44;106154;1279;25406;-49
2023/01/09 16:05:43;;;;;;;24.40;6.30;;;;;;;10.70;68.76;102148.27;106295;1279;25382;-50
2023/01/09 16:08:39;;;;;;;18.70;5.30;;;;;;;10.72;68.64;102144.27;106343;1278;22528;-50
2023/01/09 16:11:09;;;;;;;20.10;4.90;;;;;;;10.74;68.55;102139.95;106364;1278;25392;-49
2023/01/09 16:13:42;;;;;;;20.40;5.50;;;;;;;10.74;68.35;102133.00;106062;1282;22536;-49
2023/01/09 16:16:09;;;;;;;14.60;4.60;;;;;;;10.74;68.21;102139.07;106333;1278;24243;-50
2023/01/09 16:18:38;;;;;;;24.50;6.70;;;;;;;10.74;68.23;102134.39;106314;1279;25359;-50
2023/01/09 16:21:11;;;;;;;20.30;6.30;;;;;;;10.75;68.07;102138.21;106604;1274;25396;-50
2023/01/09 16:23:41;;;;;;;19.10;5.20;;;;;;;10.76;68.01;102132.64;106692;1278;25352;-50
2023/01/09 16:26:12;;;;;;;19.90;6.00;;;;;;;10.77;67.76;102131.24;106372;1275;24196;-50
2023/01/09 16:28:41;;;;;;;15.80;4.90;;;;;;;10.78;67.61;102132.13;106671;1273;25463;-49
2023/01/09 16:31:25;;;;;;;15.90;5.00;;;;;;;10.79;67.58;102129.87;106525;1272;25444;-50
2023/01/09 16:33:55;;;;;;;18.60;5.00;;;;;;;10.81;67.27;102124.66;106332;1276;22712;-49
2023/01/09 16:36:24;;;;;;;21.60;6.20;;;;;;;10.80;67.27;102120.31;106673;1271;25414;-50
2023/01/09 16:38:53;;;;;;;20.20;5.10;;;;;;;10.79;67.37;102117.38;106651;1271;25386;-50
2023/01/09 16:44:08;;;;;;;14.70;4.90;;;;;;;10.80;67.16;102113.02;106604;1272;23213;-48
2023/01/09 16:46:40;;;;;;;18.00;4.70;;;;;;;10.80;66.74;102109.04;106311;1276;24346;-49
2023/01/09 16:49:27;;;;;;;18.70;5.40;;;;;;;10.78;66.70;102112.16;106713;1275;23871;-51
2023/01/09 16:51:55;;;;;;;16.90;5.10;;;;;;;10.78;66.84;102118.07;106664;1272;25441;-51
2023/01/09 16:54:23;;;;;;;19.70;5.20;;;;;;;10.77;66.75;102118.77;106851;1270;24762;-51
2023/01/09 16:56:51;;;;;;;21.90;5.60;;;;;;;10.77;66.73;102115.98;106386;1274;24233;-51
2023/01/09 16:59:24;;;;;;;12.90;4.10;;;;;;;10.78;66.76;102117.02;107001;1267;25484;-51
2023/01/09 17:01:52;;;;;;;14.20;5.20;;;;;;;10.78;66.49;102116.16;106864;1267;25322;-51
2023/01/09 17:04:22;;;;;;;21.00;5.40;;;;;;;10.76;66.43;102116.52;106682;1273;23219;-51
2023/01/09 17:06:49;;;;;;;22.90;5.10;;;;;;;10.75;66.62;102110.78;107005;1267;25324;-51
2023/01/09 17:09:17;;;;;;;17.10;5.60;;;;;;;10.72;66.71;102102.62;107079;1266;25223;-50
2023/01/09 17:11:45;;;;;;;18.80;5.60;;;;;;;10.72;66.66;102106.44;107078;1267;22523;-52
2023/01/09 17:14:12;;;;;;;20.50;5.10;;;;;;;10.72;66.61;102098.27;107117;1266;25436;-49
2023/01/09 17:16:45;;;;;;;22.10;5.80;;;;;;;10.72;66.66;102098.45;107210;1267;25318;-51
2023/01/09 17:19:17;;;;;;;18.50;5.30;;;;;;;10.72;66.58;102099.50;107110;1267;25321;-51
2023/01/09 17:21:45;;;;;;;17.70;5.40;;;;;;;10.72;66.39;102100.53;107200;1266;22549;-49
2023/01/09 17:29:43;;;;;;;16.70;4.60;;;;;;;10.72;66.21;102098.45;107073;1266;23260;-49
2023/01/09 17:32:15;;;;;;;20.90;6.30;;;;;;;10.71;66.10;102098.98;107033;1270;24366;-50
2023/01/09 17:34:43;;;;;;;12.30;4.00;;;;;;;10.71;66.20;102097.23;107037;1267;24349;-51
2023/01/09 17:37:17;;;;;;;18.00;5.80;;;;;;;10.72;66.15;102090.30;106928;1267;25337;-49
2023/01/09 17:39:45;;;;;;;16.80;4.90;;;;;;;10.73;66.12;102093.77;107164;1266;25331;-51
2023/01/09 17:42:12;;;;;;;17.70;4.80;;;;;;;10.73;65.94;102098.64;107056;1266;25471;-51
2023/01/09 17:44:39;;;;;;;13.60;4.50;;;;;;;10.74;65.98;102094.13;106254;1266;1003025;-50
2023/01/09 17:47:14;;;;;;;15.40;5.60;;;;;;;10.75;66.15;102091.69;107083;1266;26474;-49
2023/01/09 17:49:41;;;;;;;15.50;4.30;;;;;;;10.75;66.12;102089.95;106759;1267;25333;-50
2023/01/09 17:52:08;;;;;;;22.10;4.90;;;;;;;10.76;65.99;102092.90;107071;1267;22689;-51
2023/01/09 17:54:35;;;;;;;17.30;4.70;;;;;;;10.75;66.04;102092.73;107104;1267;25401;-50
2023/01/09 17:57:02;;;;;;;21.70;5.40;;;;;;;10.75;65.93;102091.70;107117;1267;22533;-49
2023/01/09 17:59:29;;;;;;;22.10;4.50;;;;;;;10.76;65.89;102093.23;107024;1267;22753;-51
2023/01/09 18:01:56;;;;;;;16.40;4.80;;;;;;;10.77;65.91;102092.38;107076;1266;25516;-49
2023/01/09 18:04:24;;;;;;;16.10;4.60;;;;;;;10.77;65.78;102093.08;106865;1272;25271;-49
2023/01/09 18:06:53;;;;;;;20.00;5.90;;;;;;;10.79;65.82;102098.11;107067;1267;24225;-51
2023/01/09 18:09:20;;;;;;;18.50;4.90;;;;;;;10.80;65.86;102096.02;106941;1267;25380;-51
2023/01/09 18:11:47;;;;;;;23.30;6.30;;;;;;;10.81;65.73;102100.01;106999;1266;25531;-49
2023/01/09 18:14:16;;;;;;;18.00;5.20;;;;;;;10.81;65.86;102090.11;107122;1268;25398;-50
2023/01/09 18:16:44;;;;;;;17.40;5.40;;;;;;;10.81;65.81;102087.16;107055;1267;25344;-51
2023/01/09 18:19:11;;;;;;;22.40;4.80;;;;;;;10.83;65.72;102086.82;107037;1266;25625;-51
2023/01/09 18:21:39;;;;;;;16.40;4.80;;;;;;;10.82;65.55;102093.05;107129;1270;25369;-49
2023/01/09 18:24:07;;;;;;;17.20;5.20;;;;;;;10.81;65.45;102083.17;107134;1270;25399;-51
2023/01/09 18:26:35;;;;;;;24.40;6.30;;;;;;;10.82;65.41;102085.44;107034;1267;24218;-50
2023/01/09 18:29:03;;;;;;;20.70;6.10;;;;;;;10.81;65.44;102092.20;107099;1266;24215;-50
2023/01/09 18:31:30;;;;;;;14.90;5.40;;;;;;;10.80;65.55;102088.03;106712;1269;25369;-51
2023/01/09 18:34:01;;;;;;;17.00;5.50;;;;;;;10.79;65.46;102086.48;107053;1272;25346;-51
2023/01/09 18:36:28;;;;;;;13.50;5.30;;;;;;;10.77;65.39;102082.30;106984;1272;22639;-51
2023/01/09 18:39:00;;;;;;;15.00;4.40;;;;;;;10.76;65.17;102082.48;106323;1266;1003466;-51
2023/01/09 18:41:27;;;;;;;19.20;5.00;;;;;;;10.76;64.88;102078.84;106898;1267;25157;-51
2023/01/09 18:43:56;;;;;;;19.40;5.90;;;;;;;10.76;64.91;102076.92;107164;1266;25219;-51
2023/01/09 18:46:24;;;;;;;22.00;5.10;;;;;;;10.76;64.71;102077.27;107119;1267;23989;-51
2023/01/09 18:48:58;;;;;;;19.70;5.20;;;;;;;10.77;64.92;102080.23;106790;1267;25341;-49
2023/01/09 18:51:26;;;;;;;24.30;5.70;;;;;;;10.79;65.01;102081.45;107178;1267;25395;-51
2023/01/09 18:53:54;;;;;;;25.30;7.10;;;;;;;10.80;65.16;102079.02;107072;1272;25492;-49
2023/01/09 18:56:22;;;;;;;13.10;5.10;;;;;;;10.81;65.01;102074.84;107093;1271;23919;-51
2023/01/09 18:58:53;;;;;;;16.80;4.60;;;;;;;10.80;64.93;102073.11;107085;1266;22520;-51
2023/01/09 19:01:20;;;;;;;14.30;5.00;;;;;;;10.80;64.83;102070.66;107123;1266;23858;-51
2023/01/09 19:03:50;;;;;;;14.90;4.90;;;;;;;10.80;64.60;102068.08;106850;1274;25353;-49
2023/01/09 19:06:17;;;;;;;19.80;4.70;;;;;;;10.78;64.48;102060.27;106812;1270;25581;-51
2023/01/09 19:08:45;;;;;;;16.30;5.20;;;;;;;10.77;64.33;102058.19;106865;1266;25352;-51
2023/01/09 19:11:12;;;;;;;12.50;5.40;;;;;;;10.76;64.40;102055.05;106963;1267;25312;-50
2023/01/09 19:13:39;;;;;;;21.20;5.30;;;;;;;10.75;64.45;102057.50;107087;1267;25324;-49
2023/01/09 19:16:07;;;;;;;14.20;4.90;;;;;;;10.75;64.59;102056.62;106886;1267;25398;-49
2023/01/09 19:18:38;;;;;;;21.70;5.60;;;;;;;10.75;64.72;102054.20;106951;1266;25340;-49
2023/01/09 19:21:10;;;;;;;22.30;5.40;;;;;;;10.74;64.62;102055.41;106321;1267;1003386;-50
2023/01/09 19:23:37;;;;;;;18.80;4.70;;;;;;;10.72;64.58;102056.45;106981;1273;25324;-49
2023/01/09 19:26:09;;;;;;;21.80;5.20;;;;;;;10.72;64.73;102054.36;106860;1271;25337;-50
2023/01/09 19:28:37;;;;;;;25.20;6.60;;;;;;;10.74;64.92;102050.55;107006;1270;22604;-49
2023/01/09 19:31:05;;;;;;;14.20;4.90;;;;;;;10.74;64.79;102051.07;106852;1267;25333;-50
2023/01/09 19:33:32;;;;;;;12.70;5.00;;;;;;;10.75;64.88;102054.02;106421;1275;25509;-50
2023/01/09 19:35:59;;;;;;;18.50;4.90;;;;;;;10.74;64.76;102050.90;107138;1274;25376;-49
2023/01/09 19:38:26;;;;;;;19.60;5.40;;;;;;;10.75;64.68;102050.90;107225;1266;25340;-50
2023/01/09 19:40:53;;;;;;;14.30;4.80;;;;;;;10.74;64.79;102050.55;107030;1270;25420;-50
2023/01/09 19:43:26;;;;;;;21.30;5.10;;;;;;;10.72;64.37;102049.34;106959;1269;25413;-50
2023/01/09 19:45:54;;;;;;;14.50;4.40;;;;;;;10.70;64.24;102041.89;107075;1266;25583;-49
2023/01/09 19:48:22;;;;;;;22.90;5.80;;;;;;;10.69;64.22;102040.66;107047;1270;25321;-49
2023/01/09 19:50:49;;;;;;;19.10;5.90;;;;;;;10.69;64.44;102043.27;107113;1267;22996;-49
2023/01/09 19:53:17;;;;;;;18.30;5.00;;;;;;;10.69;64.80;102039.63;107095;1266;25538;-49
2023/01/09 19:55:45;;;;;;;14.50;4.70;;;;;;;10.68;64.67;102035.30;107164;1266;25328;-49
2023/01/09 19:58:12;;;;;;;15.00;4.80;;;;;;;10.66;64.64;102032.17;107226;1267;25494;-50
2023/01/09 20:00:39;;;;;;;18.70;5.40;;;;;;;10.64;64.66;102027.67;107129;1266;25350;-50
2023/01/09 20:03:06;;;;;;;11.30;3.80;;;;;;;10.62;64.78;102023.16;107056;1273;24068;-50
2023/01/09 20:05:34;;;;;;;18.10;4.80;;;;;;;10.59;64.97;102029.59;107102;1266;25347;-49
2023/01/09 20:08:05;;;;;;;16.70;5.50;;;;;;;10.57;65.18;102026.48;106929;1274;25424;-49
2023/01/09 20:10:32;;;;;;;15.00;4.50;;;;;;;10.54;65.10;102031.50;106868;1273;25401;-49
2023/01/09 20:12:59;;;;;;;17.10;5.60;;;;;;;10.51;65.30;102036.70;107194;1267;25322;-50
2023/01/09 20:15:26;;;;;;;16.10;5.20;;;;;;;10.47;65.32;102029.77;107197;1266;25399;-49
2023/01/09 20:17:54;;;;;;;14.40;5.20;;;;;;;10.44;65.33;102025.79;106870;1269;25348;-50
2023/01/09 20:20:21;;;;;;;18.00;6.10;;;;;;;10.41;65.34;102025.95;107103;1267;25350;-49
2023/01/09 20:22:49;;;;;;;18.70;5.80;;;;;;;10.39;65.38;102025.96;106775;1267;25450;-50
2023/01/09 20:25:16;;;;;;;17.20;6.70;;;;;;;10.35;65.46;102037.24;106729;1267;24202;-50
2023/01/09 20:27:43;;;;;;;18.20;5.40;;;;;;;10.31;65.52;102040.19;107165;1266;25496;-50
2023/01/09 20:30:11;;;;;;;14.70;4.60;;;;;;;10.27;65.56;102038.28;107125;1271;24256;-49
2023/01/09 20:32:38;;;;;;;16.50;5.90;;;;;;;10.25;65.73;102042.09;107115;1269;22527;-50
2023/01/09 20:35:06;;;;;;;13.10;5.00;;;;;;;10.22;65.91;102042.97;107105;1266;25319;-50
2023/01/09 20:37:34;;;;;;;16.10;4.90;;;;;;;10.21;65.90;102045.91;107121;1267;25841;-50
2023/01/09 20:40:01;;;;;;;14.60;5.00;;;;;;;10.19;66.17;102048.34;107131;1267;25402;-50
2023/01/09 20:42:29;;;;;;;17.50;5.30;;;;;;;10.18;66.34;102051.11;106368;1267;1003747;-49
2023/01/09 20:44:57;;;;;;;16.30;5.70;;;;;;;10.16;66.47;102045.91;107061;1266;25507;-50
2023/01/09 20:47:24;;;;;;;17.30;6.50;;;;;;;10.15;66.53;102043.14;107127;1267;25363;-50
2023/01/09 20:49:51;;;;;;;20.30;5.70;;;;;;;10.14;66.52;102044.18;106944;1267;25495;-50
2023/01/09 20:52:21;;;;;;;20.70;6.90;;;;;;;10.13;66.26;102039.33;106878;1274;25533;-49
2023/01/09 20:54:48;;;;;;;15.30;5.10;;;;;;;10.13;66.45;102041.75;107132;1267;25379;-50
2023/01/09 20:57:18;;;;;;;21.10;6.40;;;;;;;10.11;66.47;102043.31;107118;1267;25302;-50
2023/01/09 20:59:46;;;;;;;18.00;5.70;;;;;;;10.10;66.69;102050.92;107102;1266;23429;-50
2023/01/09 21:02:13;;;;;;;21.10;5.00;;;;;;;10.08;66.72;102048.46;107049;1273;24249;-49
2023/01/09 21:04:40;;;;;;;16.70;5.80;;;;;;;10.09;66.82;102048.29;107122;1272;25398;-50
2023/01/09 21:07:09;;;;;;;17.40;5.20;;;;;;;10.08;66.71;102045.17;107102;1267;25399;-50
2023/01/09 21:09:36;;;;;;;19.70;5.40;;;;;;;10.07;66.72;102041.18;106862;1269;25479;-50
2023/01/09 21:12:23;;;;;;;16.40;6.40;;;;;;;10.05;66.86;102041.01;107108;1266;25382;-50
2023/01/09 21:14:50;;;;;;;16.30;5.80;;;;;;;10.04;67.10;102040.31;106996;1272;23239;-50
2023/01/09 21:17:17;;;;;;;15.80;4.50;;;;;;;10.04;67.27;102040.65;107132;1270;24235;-50
2023/01/09 21:19:45;;;;;;;20.50;5.90;;;;;;;10.04;67.45;102044.48;107153;1266;25322;-49
2023/01/09 21:22:12;;;;;;;24.40;6.00;;;;;;;10.04;67.52;102047.25;107127;1272;25343;-49
2023/01/09 21:24:39;;;;;;;17.20;5.50;;;;;;;10.05;67.63;102042.58;107123;1267;25374;-49
2023/01/09 21:27:06;;;;;;;13.80;5.20;;;;;;;10.05;67.75;102039.27;107075;1267;22131;-50
2023/01/09 21:29:33;;;;;;;17.60;5.50;;;;;;;10.05;67.51;102034.77;107088;1270;25444;-50
2023/01/09 21:32:01;;;;;;;17.60;5.00;;;;;;;10.05;67.47;102029.40;107121;1266;25327;-50
2023/01/09 21:34:28;;;;;;;18.00;5.00;;;;;;;10.06;67.40;102027.66;107115;1266;25302;-50
2023/01/09 21:36:55;;;;;;;15.30;4.60;;;;;;;10.07;67.42;102031.48;106997;1270;24424;-50
2023/01/09 21:39:23;;;;;;;25.00;7.00;;;;;;;10.07;67.52;102030.27;107137;1266;25337;-50
2023/01/09 21:47:22;;;;;;;21.60;5.30;;;;;;;10.12;67.82;102027.71;107140;1272;25318;-50
2023/01/09 21:49:50;;;;;;;15.40;5.40;;;;;;;10.11;67.76;102026.65;107075;1270;25389;-49
2023/01/09 21:52:19;;;;;;;22.00;6.10;;;;;;;10.11;67.96;102023.20;106969;1272;25334;-49
2023/01/09 21:54:47;;;;;;;21.70;6.10;;;;;;;10.11;67.91;102018.69;107133;1251;25619;-49
2023/01/09 21:57:14;;;;;;;14.70;5.00;;;;;;;10.10;68.15;102019.55;106216;1266;1002557;-50
2023/01/09 21:59:42;;;;;;;21.00;6.00;;;;;;;10.12;68.24;102021.29;107136;1267;25340;-50
2023/01/09 22:02:13;;;;;;;17.40;5.00;;;;;;;10.13;68.27;102023.02;107034;1272;25398;-50
2023/01/09 22:04:41;;;;;;;21.80;5.70;;;;;;;10.14;68.32;102023.20;106202;1274;1002904;-50
2023/01/09 22:07:09;;;;;;;19.40;5.20;;;;;;;10.15;68.24;102017.30;107157;1267;25330;-49
2023/01/09 22:09:36;;;;;;;17.30;4.90;;;;;;;10.16;68.34;102019.21;107133;1271;25545;-50
2023/01/09 22:12:03;;;;;;;15.30;5.40;;;;;;;10.17;68.41;102012.96;107224;1266;25381;-52
2023/01/09 22:14:31;;;;;;;21.60;6.10;;;;;;;10.17;68.36;102009.16;107057;1266;25324;-50
2023/01/09 22:16:58;;;;;;;22.30;5.20;;;;;;;10.17;68.29;102011.05;106870;1267;25385;-50
2023/01/09 22:19:25;;;;;;;15.00;5.30;;;;;;;10.16;68.40;101999.79;106711;1269;25402;-52
2023/01/09 22:21:54;;;;;;;21.30;7.10;;;;;;;10.16;68.53;101996.50;107046;1274;22940;-52
2023/01/09 22:24:24;;;;;;;19.80;5.90;;;;;;;10.17;68.59;101997.54;106349;1267;1002915;-49
2023/01/09 22:26:51;;;;;;;22.20;7.20;;;;;;;10.17;68.47;101993.02;107078;1274;24058;-51
2023/01/09 22:29:20;;;;;;;19.20;6.10;;;;;;;10.16;68.44;101986.09;107124;1271;25331;-50
2023/01/09 22:31:48;;;;;;;18.20;6.30;;;;;;;10.15;68.24;101990.08;107061;1274;25328;-50
2023/01/09 22:34:16;;;;;;;22.30;6.70;;;;;;;10.12;68.27;101985.05;107169;1266;25312;-51
2023/01/09 22:36:44;;;;;;;19.10;6.50;;;;;;;10.11;68.21;101982.27;106772;1275;25396;-51
2023/01/09 22:39:13;;;;;;;27.30;6.80;;;;;;;10.09;68.27;101983.11;107068;1274;25353;-51
2023/01/09 22:41:40;;;;;;;18.90;6.90;;;;;;;10.07;68.43;101985.54;106947;1273;24041;-51
2023/01/09 22:44:10;;;;;;;15.40;6.50;;;;;;;10.06;68.43;101986.23;107170;1267;25376;-51
2023/01/09 22:46:37;;;;;;;23.50;7.10;;;;;;;10.05;68.59;101982.24;106919;1274;24048;-51
2023/01/09 22:49:06;;;;;;;18.30;6.20;;;;;;;10.05;68.65;101980.50;107149;1274;25327;-51
2023/01/09 22:51:33;;;;;;;21.50;7.20;;;;;;;10.05;68.71;101973.40;107162;1267;25321;-51
2023/01/09 22:54:00;;;;;;;18.00;6.70;;;;;;;10.05;68.74;101968.71;106308;1274;1003511;-51
2023/01/09 22:56:31;;;;;;;19.10;6.80;;;;;;;10.04;68.85;101963.34;107092;1274;25321;-51
2023/01/09 22:58:59;;;;;;;24.20;7.50;;;;;;;10.04;68.85;101963.86;106902;1274;25502;-51
2023/01/09 23:01:27;;;;;;;18.40;6.70;;;;;;;10.04;68.93;101958.83;107123;1272;22776;-50
2023/01/09 23:03:54;;;;;;;19.90;6.40;;;;;;;10.04;69.05;101956.58;106955;1271;23896;-48
2023/01/09 23:06:21;;;;;;;21.30;6.60;;;;;;;10.05;69.15;101951.73;106788;1270;25344;-50
2023/01/09 23:08:49;;;;;;;13.80;4.40;;;;;;;10.04;68.98;101947.74;107004;1270;25328;-51
2023/01/09 23:14:11;;;;;;;13.70;3.40;;;;;;;10.03;67.11;101949.83;106945;1272;25475;-49
2023/01/09 23:16:39;;;;;;;10.00;3.00;;;;;;;10.05;66.45;101946.88;106907;1276;25634;-51
2023/01/09 23:19:13;;;;;;;11.70;3.60;;;;;;;10.07;66.05;101943.75;106345;1276;23875;-51
2023/01/09 23:21:40;;;;;;;11.70;3.70;;;;;;;10.10;65.64;101934.75;106833;1269;25614;-49
2023/01/09 23:24:08;;;;;;;14.60;3.20;;;;;;;10.13;65.49;101933.21;106706;1276;22524;-51
2023/01/09 23:26:37;;;;;;;14.40;3.30;;;;;;;10.16;65.52;101931.64;106717;1271;25455;-50
2023/01/09 23:29:05;;;;;;;15.40;3.40;;;;;;;10.19;64.95;101929.04;107061;1269;25392;-51
2023/01/09 23:31:34;;;;;;;10.60;3.70;;;;;;;10.20;64.92;101930.95;107013;1269;22540;-51
2023/01/09 23:34:02;;;;;;;17.50;4.00;;;;;;;10.22;65.00;101930.25;107003;1276;25392;-52
2023/01/09 23:36:29;;;;;;;15.10;4.40;;;;;;;10.24;64.76;101930.95;106872;1271;25331;-50
2023/01/09 23:38:58;;;;;;;14.20;3.70;;;;;;;10.25;64.44;101933.52;106957;1267;24201;-49
2023/01/09 23:44:11;;;;;;;11.90;3.20;;;;;;;10.28;64.06;101927.80;106998;1271;25312;-51
2023/01/09 23:46:38;;;;;;;10.60;3.20;;;;;;;10.30;63.89;101926.59;106993;1271;24257;-50
2023/01/09 23:49:05;;;;;;;8.70;2.70;;;;;;;10.31;63.47;101921.38;107141;1269;24347;-50
2023/01/09 23:51:33;;;;;;;10.70;3.00;;;;;;;10.31;63.04;101917.75;106385;1267;1003328;-49
2023/01/09 23:54:00;;;;;;;17.50;3.50;;;;;;;10.33;62.88;101916.00;107087;1270;25331;-49
2023/01/09 23:56:29;;;;;;;14.40;3.20;;;;;;;10.33;62.64;101912.38;107066;1267;25325;-49
2023/01/09 23:59:00;;;;;;;20.00;5.90;;;;;;;10.34;62.67;101913.58;106917;1270;24202;-50
